Terminal Aerodrome Forecast
Issued by NWS

Home | Current Version | Previous Version | Text Only | Print | Product List | Glossary Off
Versions: 1 2 3 4 5 6 7 8 9 10 11 12 13 14

000
FTUS45 KGGW 101736
TAFGDV
TAF
KGDV 101736Z 1018/1118 11012KT P6SM BKN040
     FM110000 09009KT 2SM -SN OVC010
     FM110300 09008KT 3/4SM -SN OVC010
     FM110500 08005KT 1 1/2SM -SN OVC009
     FM110700 02004KT 3SM -SN BKN009
     FM110900 26007KT P6SM BKN025=

USA.gov is the U.S. government's official web portal to all federal, state and local government web resources and services.